createdAt,value
2022-11-13T00:00:01.102Z,98907.28
2022-11-13T00:02:49.123Z,98910.72
2022-11-13T00:05:36.647Z,98909.88
2022-11-13T00:08:24.034Z,98858.38
2022-11-13T00:11:17.803Z,98873.22
2022-11-13T00:14:06.091Z,98848.41
2022-11-13T00:16:58.797Z,98836.72
2022-11-13T00:19:47.029Z,98915.91
2022-11-13T00:22:34.944Z,98897.91
2022-11-13T00:25:22.474Z,98906.66
2022-11-13T00:28:12.526Z,98921.38
2022-11-13T00:31:01.616Z,98849.72
2022-11-13T00:36:57.110Z,98871.53
2022-11-13T00:39:45.122Z,98806.69
2022-11-13T00:42:39.318Z,98861.84
2022-11-13T00:45:29.743Z,98854.22
2022-11-13T00:48:17.322Z,98929.94
2022-11-13T00:51:11.070Z,98815.31
2022-11-13T00:53:58.892Z,98940.28
2022-11-13T00:56:51.938Z,98916.78
2022-11-13T00:59:40.168Z,98940.28
2022-11-13T01:02:30.470Z,98941.19
2022-11-13T01:05:18.582Z,98907.59
2022-11-13T01:08:12.653Z,98906.56
2022-11-13T01:11:00.475Z,98937.69
2022-11-13T01:13:55.129Z,98929.91
2022-11-13T01:16:42.941Z,98892.09
2022-11-13T01:19:38.102Z,98903.31
2022-11-13T01:22:25.641Z,98914.59
2022-11-13T01:25:13.384Z,98905.44
2022-11-13T01:28:01.484Z,98915.50
2022-11-13T01:30:54.139Z,98871.03
2022-11-13T01:33:42.206Z,98886.72
2022-11-13T01:36:37.383Z,98886.75
2022-11-13T01:39:25.126Z,98943.63
2022-11-13T01:42:12.981Z,98896.69
2022-11-13T01:45:03.041Z,98899.00
2022-11-13T01:47:50.875Z,98918.03
2022-11-13T01:50:38.998Z,98935.47
2022-11-13T01:53:29.969Z,98844.31
2022-11-13T01:56:18.997Z,98903.72
2022-11-13T01:59:00.712Z,98864.00
2022-11-13T02:01:48.651Z,98864.72
2022-11-13T02:04:42.034Z,98805.41
2022-11-13T02:07:30.297Z,98910.53
2022-11-13T02:10:13.837Z,98934.78
2022-11-13T02:13:02.236Z,98823.06
2022-11-13T02:15:52.145Z,98881.38
2022-11-13T02:18:41.591Z,98911.59
2022-11-13T02:24:42.029Z,98905.78
2022-11-13T02:27:36.674Z,98922.94
2022-11-13T02:30:27.878Z,98878.13
2022-11-13T02:33:26.602Z,98904.91
2022-11-13T02:36:15.031Z,98894.53
2022-11-13T02:39:07.043Z,98932.31
2022-11-13T02:41:57.270Z,98887.53
2022-11-13T02:44:55.462Z,98890.19
2022-11-13T02:47:43.440Z,98895.47
2022-11-13T02:53:25.553Z,98893.28
2022-11-13T02:56:13.781Z,98840.63
2022-11-13T02:59:03.390Z,98862.00
2022-11-13T03:01:52.249Z,98885.13
2022-11-13T03:05:10.488Z,98884.97
2022-11-13T03:07:53.588Z,98864.53
2022-11-13T03:13:40.848Z,98823.38
2022-11-13T03:16:30.718Z,98865.91
2022-11-13T03:19:07.136Z,98846.25
2022-11-13T03:21:55.041Z,98858.69
2022-11-13T03:24:42.795Z,98877.72
2022-11-13T03:27:33.682Z,98841.38
2022-11-13T03:30:21.818Z,98848.13
2022-11-13T03:33:11.610Z,98880.84
2022-11-13T03:35:59.262Z,98903.34
2022-11-13T03:38:46.915Z,98888.78
2022-11-13T03:41:35.368Z,98927.44
2022-11-13T03:44:28.257Z,98862.47
2022-11-13T03:47:17.215Z,98826.25
2022-11-13T03:50:07.873Z,98937.72
2022-11-13T03:52:58.681Z,98902.47
2022-11-13T03:55:46.875Z,98937.81
2022-11-13T03:58:38.550Z,98912.22
2022-11-13T04:01:27.947Z,98886.69
2022-11-13T04:04:17.270Z,98918.34
2022-11-13T04:07:07.639Z,98915.03
2022-11-13T04:09:55.441Z,98884.19
2022-11-13T04:12:43.508Z,98904.06
2022-11-13T04:15:36.550Z,98891.69
2022-11-13T04:18:24.594Z,98910.44
2022-11-13T04:21:19.032Z,98864.69
2022-11-13T04:24:09.153Z,98832.78
2022-11-13T04:26:58.489Z,98891.94
2022-11-13T04:29:46.635Z,98857.84
2022-11-13T04:32:34.385Z,98946.13
2022-11-13T04:35:22.260Z,98940.25
2022-11-13T04:38:09.962Z,98944.75
2022-11-13T04:41:12.510Z,98965.44
2022-11-13T04:44:00.591Z,98933.69
2022-11-13T04:46:48.497Z,98870.97
2022-11-13T04:49:36.757Z,98940.66
2022-11-13T04:52:30.373Z,98924.19
2022-11-13T04:58:14.575Z,98935.16
2022-11-13T05:01:03.670Z,98921.56
2022-11-13T05:03:51.279Z,98966.09
2022-11-13T05:06:38.794Z,98916.25
2022-11-13T05:09:27.832Z,98939.25
2022-11-13T05:12:15.692Z,98933.94
2022-11-13T05:15:06.361Z,98888.25
2022-11-13T05:17:54.259Z,98919.16
2022-11-13T05:20:42.267Z,98915.75
2022-11-13T05:23:30.191Z,98938.91
2022-11-13T05:26:19.355Z,98934.56
2022-11-13T05:29:07.450Z,98940.47
2022-11-13T05:31:57.073Z,98907.84
2022-11-13T05:34:44.955Z,98974.09
2022-11-13T05:37:32.874Z,98981.81
2022-11-13T05:40:25.974Z,98966.38
2022-11-13T05:43:14.149Z,98922.75
2022-11-13T05:46:08.370Z,98983.91
2022-11-13T05:49:00.189Z,98886.78
2022-11-13T05:51:48.370Z,98971.06
2022-11-13T05:54:43.236Z,98947.97
2022-11-13T05:57:32.501Z,98967.88
2022-11-13T06:00:24.024Z,98927.31
2022-11-13T06:03:16.974Z,98969.16
2022-11-13T06:06:09.114Z,98923.72
2022-11-13T06:09:04.882Z,98992.22
2022-11-13T06:11:52.868Z,99061.09
2022-11-13T06:14:40.682Z,98987.16
2022-11-13T06:17:28.180Z,99069.81
2022-11-13T06:20:18.432Z,99002.97
2022-11-13T06:23:08.653Z,98883.56
2022-11-13T06:26:09.269Z,99008.22
2022-11-13T06:28:57.825Z,99027.34
2022-11-13T06:31:45.362Z,99076.38
2022-11-13T06:34:33.524Z,99070.41
2022-11-13T06:37:21.655Z,99070.41
2022-11-13T06:40:13.002Z,99048.78
2022-11-13T06:43:01.099Z,99093.38
2022-11-13T06:45:49.191Z,99074.66
2022-11-13T06:48:42.315Z,99079.69
2022-11-13T06:51:31.860Z,99096.13
2022-11-13T06:54:24.959Z,99096.19
2022-11-13T06:57:14.555Z,99076.47
2022-11-13T07:00:02.638Z,99107.41
2022-11-13T07:02:51.323Z,99010.72
2022-11-13T07:05:46.970Z,99108.25
2022-11-13T07:08:37.718Z,99120.22
2022-11-13T07:11:26.181Z,99097.88
2022-11-13T07:14:21.256Z,99102.97
2022-11-13T07:17:10.337Z,99126.13
2022-11-13T07:19:58.675Z,99108.03
2022-11-13T07:22:46.878Z,99138.84
2022-11-13T07:25:35.592Z,99072.66
2022-11-13T07:28:28.678Z,99138.03
2022-11-13T07:31:20.433Z,99055.63
2022-11-13T07:34:08.596Z,99169.78
2022-11-13T07:36:56.432Z,99121.56
2022-11-13T07:39:45.243Z,99116.78
2022-11-13T07:42:33.429Z,99150.94
2022-11-13T07:45:32.588Z,99150.13
2022-11-13T07:48:23.548Z,99160.53
2022-11-13T07:51:11.712Z,99141.81
2022-11-13T07:53:59.754Z,99171.91
2022-11-13T07:56:49.036Z,99183.72
2022-11-13T07:59:37.430Z,99153.53
2022-11-13T08:02:26.703Z,99151.84
2022-11-13T08:05:17.870Z,99058.41
2022-11-13T08:08:06.468Z,99171.72
2022-11-13T08:10:54.328Z,99182.81
2022-11-13T08:13:47.223Z,99186.09
2022-11-13T08:16:35.341Z,99150.03
2022-11-13T08:19:23.340Z,99182.69
2022-11-13T08:22:18.724Z,99215.19
2022-11-13T08:25:07.524Z,99163.66
2022-11-13T08:27:57.686Z,99209.91
2022-11-13T08:30:52.228Z,99177.22
2022-11-13T08:33:26.971Z,99200.34
2022-11-13T08:36:14.901Z,99198.78
2022-11-13T08:39:05.041Z,99091.47
2022-11-13T08:41:52.942Z,99204.91
2022-11-13T08:44:42.419Z,99217.81
2022-11-13T08:47:30.255Z,99236.78
2022-11-13T08:50:18.446Z,99199.84
2022-11-13T08:53:16.567Z,99240.97
2022-11-13T08:56:07.568Z,99187.56
2022-11-13T09:01:58.980Z,99227.19
2022-11-13T09:04:47.123Z,99189.38
2022-11-13T09:07:34.958Z,99253.69
2022-11-13T09:10:22.910Z,99201.28
2022-11-13T09:13:13.510Z,99246.06
2022-11-13T09:16:01.609Z,99221.91
2022-11-13T09:18:51.886Z,99225.44
2022-11-13T09:21:39.971Z,99221.94
2022-11-13T09:24:27.505Z,99262.31
2022-11-13T09:27:15.323Z,99258.81
2022-11-13T09:30:05.844Z,99253.59
2022-11-13T09:32:56.854Z,99263.84
2022-11-13T09:35:46.687Z,99282.72
2022-11-13T09:38:34.575Z,99251.00
2022-11-13T09:41:26.574Z,99246.78
2022-11-13T09:44:22.437Z,99272.56
2022-11-13T09:47:19.606Z,99280.44
2022-11-13T09:50:14.152Z,99301.19
2022-11-13T09:53:02.003Z,99280.56
2022-11-13T09:55:59.386Z,99264.16
2022-11-13T09:58:53.816Z,99263.28
2022-11-13T10:01:56.204Z,99245.44
2022-11-13T10:05:02.404Z,99253.91
2022-11-13T10:08:04.142Z,99165.41
2022-11-13T10:10:59.504Z,99308.94
2022-11-13T10:13:42.064Z,99280.69
2022-11-13T10:16:35.563Z,99329.66
2022-11-13T10:19:30.312Z,99355.41
2022-11-13T10:22:32.752Z,99285.88
2022-11-13T10:25:28.552Z,99285.94
2022-11-13T10:28:48.936Z,99285.06
2022-11-13T10:31:27.512Z,99352.91
2022-11-13T10:34:16.714Z,99320.41
2022-11-13T10:37:21.107Z,99332.38
2022-11-13T10:40:11.088Z,99326.28
2022-11-13T10:43:08.117Z,99380.31
2022-11-13T10:45:58.621Z,99377.69
2022-11-13T10:48:46.279Z,99354.53
2022-11-13T10:51:36.305Z,99371.75
2022-11-13T10:54:32.011Z,99377.66
2022-11-13T10:57:34.178Z,99379.34
2022-11-13T11:00:25.199Z,99388.88
2022-11-13T11:03:18.805Z,99400.13
2022-11-13T11:06:13.853Z,99360.72
2022-11-13T11:09:08.764Z,99388.16
2022-11-13T11:12:18.619Z,99405.28
2022-11-13T11:15:21.845Z,99444.72
2022-11-13T11:18:27.433Z,99395.75
2022-11-13T11:21:19.077Z,99387.03
2022-11-13T11:24:18.616Z,99351.03
2022-11-13T11:27:13.512Z,99308.03
2022-11-13T11:30:06.634Z,99414.44
2022-11-13T11:33:05.142Z,99388.84
2022-11-13T11:35:59.431Z,99404.28
2022-11-13T11:38:55.113Z,99443.84
2022-11-13T11:41:48.735Z,99396.72
2022-11-13T11:44:51.960Z,99406.19
2022-11-13T11:47:40.681Z,99412.22
2022-11-13T11:50:38.648Z,99463.72
2022-11-13T11:53:40.064Z,99447.44
2022-11-13T11:56:34.490Z,99442.31
2022-11-13T11:59:36.141Z,99447.44
2022-11-13T12:02:48.324Z,99454.25
2022-11-13T12:05:52.223Z,99473.13
2022-11-13T12:08:48.684Z,99471.38
2022-11-13T12:11:39.732Z,99392.50
2022-11-13T12:14:44.391Z,99430.28
2022-11-13T12:17:47.145Z,99473.16
2022-11-13T12:20:50.566Z,99398.56
2022-11-13T12:23:56.129Z,99488.53
2022-11-13T12:26:52.061Z,99485.09
2022-11-13T12:29:53.838Z,99517.66
2022-11-13T12:32:56.918Z,99464.59
2022-11-13T12:35:54.702Z,99450.88
2022-11-13T12:38:51.143Z,99526.31
2022-11-13T12:41:44.034Z,99531.38
2022-11-13T12:44:33.048Z,99535.63
2022-11-13T12:47:26.580Z,99510.81
2022-11-13T12:55:37.059Z,99581.75
2022-11-13T12:58:28.901Z,99572.31
2022-11-13T13:01:22.275Z,99570.59
2022-11-13T13:04:39.528Z,99575.69
2022-11-13T13:07:44.913Z,99530.41
2022-11-13T13:10:44.565Z,99537.25
2022-11-13T13:13:41.372Z,99559.53
2022-11-13T13:16:31.286Z,99561.19
2022-11-13T13:19:28.384Z,99595.44
2022-11-13T13:22:28.442Z,99560.38
2022-11-13T13:25:33.104Z,99560.41
2022-11-13T13:28:27.661Z,99586.94
2022-11-13T13:31:30.780Z,99588.63
2022-11-13T13:34:35.375Z,99598.09
2022-11-13T13:37:42.974Z,99550.19
2022-11-13T13:40:40.696Z,99618.63
2022-11-13T13:43:44.856Z,99629.69
2022-11-13T13:46:35.338Z,99617.69
2022-11-13T13:49:25.984Z,99587.78
2022-11-13T13:52:16.860Z,99637.34
2022-11-13T13:55:11.290Z,99647.66
2022-11-13T13:58:05.214Z,99640.75
2022-11-13T14:01:20.247Z,99625.34
2022-11-13T14:04:14.670Z,99650.09
2022-11-13T14:07:05.182Z,99649.25
2022-11-13T14:10:06.887Z,99642.44
2022-11-13T14:12:54.929Z,99633.03
2022-11-13T14:15:42.997Z,99611.59
2022-11-13T14:18:33.456Z,99676.63
2022-11-13T14:21:26.719Z,99650.00
2022-11-13T14:24:25.184Z,99659.47
2022-11-13T14:27:20.624Z,99637.34
2022-11-13T14:30:24.742Z,99626.22
2022-11-13T14:33:17.483Z,99681.69
2022-11-13T14:36:09.646Z,99669.81
2022-11-13T14:38:57.348Z,99660.44
2022-11-13T14:41:54.321Z,99665.53
2022-11-13T14:44:42.232Z,99722.81
2022-11-13T14:47:37.102Z,99700.59
2022-11-13T14:50:27.566Z,99686.97
2022-11-13T14:53:33.893Z,99724.59
2022-11-13T14:56:32.646Z,99583.44
2022-11-13T14:59:33.312Z,99695.59
2022-11-13T15:02:21.900Z,99735.75
2022-11-13T15:05:10.877Z,99731.41
2022-11-13T15:07:58.896Z,99680.06
2022-11-13T15:10:50.729Z,99727.94
2022-11-13T15:13:38.490Z,99733.03
2022-11-13T15:16:30.542Z,99756.91
2022-11-13T15:19:21.365Z,99742.31
2022-11-13T15:22:26.632Z,99762.88
2022-11-13T15:25:21.495Z,99726.06
2022-11-13T15:28:16.652Z,99743.22
2022-11-13T15:31:04.384Z,99745.00
2022-11-13T15:33:52.386Z,99782.66
2022-11-13T15:36:40.537Z,99721.06
2022-11-13T15:39:28.542Z,99755.28
2022-11-13T15:42:18.430Z,99780.91
2022-11-13T15:48:13.155Z,99726.09
2022-11-13T15:51:06.510Z,99792.69
2022-11-13T15:53:58.389Z,99769.53
2022-11-13T15:56:54.200Z,99795.09
2022-11-13T15:59:42.085Z,99766.78
2022-11-13T16:02:35.210Z,99807.91
2022-11-13T16:05:24.929Z,99834.59
2022-11-13T16:08:18.592Z,99840.66
2022-11-13T16:11:07.103Z,99806.41
2022-11-13T16:13:55.700Z,99813.31
2022-11-13T16:16:43.660Z,99836.41
2022-11-13T16:19:33.952Z,99823.50
2022-11-13T16:22:23.733Z,99777.53
2022-11-13T16:25:14.222Z,99801.47
2022-11-13T16:28:02.213Z,99798.88
2022-11-13T16:30:55.807Z,99786.72
2022-11-13T16:33:44.269Z,99835.69
2022-11-13T16:36:34.623Z,99789.53
2022-11-13T16:39:22.758Z,99803.19
2022-11-13T16:42:11.209Z,99858.72
2022-11-13T16:44:59.875Z,99829.47
2022-11-13T16:47:54.420Z,99817.63
2022-11-13T16:50:43.374Z,99798.06
2022-11-13T16:53:39.202Z,99834.72
2022-11-13T16:56:30.256Z,99875.78
2022-11-13T16:59:19.933Z,99823.56
2022-11-13T17:02:16.338Z,99875.53
2022-11-13T17:05:03.936Z,99861.78
2022-11-13T17:07:52.860Z,99841.34
2022-11-13T17:10:42.851Z,99884.06
2022-11-13T17:13:31.499Z,99898.56
2022-11-13T17:16:20.272Z,99845.53
2022-11-13T17:19:08.498Z,99902.81
2022-11-13T17:21:56.826Z,99880.41
2022-11-13T17:24:45.313Z,99881.47
2022-11-13T17:27:35.500Z,99901.94
2022-11-13T17:30:24.053Z,99896.72
2022-11-13T17:33:11.958Z,99868.56
2022-11-13T17:36:00.979Z,99908.78
2022-11-13T17:38:49.152Z,99932.78
2022-11-13T17:41:37.593Z,99917.38
2022-11-13T17:44:27.719Z,99905.34
2022-11-13T17:47:15.808Z,99901.00
2022-11-13T17:50:07.658Z,99893.38
2022-11-13T17:52:56.951Z,99907.00
2022-11-13T17:55:44.960Z,99927.47
2022-11-13T17:58:39.179Z,99862.47
2022-11-13T18:01:31.096Z,99896.38
2022-11-13T18:04:18.753Z,99897.97
2022-11-13T18:07:07.003Z,99920.31
2022-11-13T18:09:54.785Z,99933.22
2022-11-13T18:12:42.895Z,99892.94
2022-11-13T18:15:31.000Z,99920.63
2022-11-13T18:18:20.936Z,99948.91
2022-11-13T18:21:22.911Z,99926.53
2022-11-13T18:24:15.111Z,99953.03
2022-11-13T18:27:03.257Z,99926.50
2022-11-13T18:29:52.160Z,99915.41
2022-11-13T18:32:40.576Z,99894.66
2022-11-13T18:35:35.433Z,99924.84
2022-11-13T18:38:23.603Z,99922.00
2022-11-13T18:41:12.913Z,99907.03
2022-11-13T18:44:02.352Z,99935.19
2022-11-13T18:46:50.398Z,99945.31
2022-11-13T18:49:38.676Z,99947.72
2022-11-13T18:52:28.255Z,99937.53
2022-11-13T18:55:16.170Z,99923.00
2022-11-13T18:58:03.960Z,99935.69
2022-11-13T19:00:51.974Z,99957.88
2022-11-13T19:03:47.121Z,99964.63
2022-11-13T19:06:49.036Z,99955.03
2022-11-13T19:09:40.228Z,99967.88
2022-11-13T19:12:28.091Z,99951.50
2022-11-13T19:15:15.850Z,99942.22
2022-11-13T19:18:03.498Z,99964.41
2022-11-13T19:20:51.927Z,99943.16
2022-11-13T19:23:40.172Z,99974.81
2022-11-13T19:26:35.164Z,99971.44
2022-11-13T19:29:22.860Z,99953.50
2022-11-13T19:32:16.215Z,99929.41
2022-11-13T19:35:03.878Z,99961.13
2022-11-13T19:37:58.409Z,99976.38
2022-11-13T19:40:47.633Z,99940.63
2022-11-13T19:43:41.239Z,99942.31
2022-11-13T19:46:34.568Z,99934.69
2022-11-13T19:49:22.473Z,99966.22
2022-11-13T19:52:10.602Z,99946.34
2022-11-13T19:54:58.240Z,100002.91
2022-11-13T19:57:46.457Z,99972.97
2022-11-13T20:00:40.140Z,99965.28
2022-11-13T20:03:28.378Z,99954.91
2022-11-13T20:06:18.909Z,99930.47
2022-11-13T20:09:07.365Z,99967.84
2022-11-13T20:11:55.391Z,99973.94
2022-11-13T20:14:43.519Z,99973.06
2022-11-13T20:17:41.167Z,99969.69
2022-11-13T20:20:39.807Z,99983.38
2022-11-13T20:23:28.246Z,99979.13
2022-11-13T20:26:16.285Z,99982.31
2022-11-13T20:29:04.402Z,99947.56
2022-11-13T20:31:53.210Z,99997.28
2022-11-13T20:34:49.096Z,99998.69
2022-11-13T20:37:37.683Z,100023.84
2022-11-13T20:40:25.611Z,100040.19
2022-11-13T20:43:13.936Z,100033.44
2022-11-13T20:46:05.911Z,100023.22
2022-11-13T20:48:53.706Z,100020.09
2022-11-13T20:51:49.020Z,100013.75
2022-11-13T20:54:43.506Z,100028.44
2022-11-13T20:57:36.820Z,100050.91
2022-11-13T21:00:31.581Z,99994.81
2022-11-13T21:03:21.474Z,100043.75
2022-11-13T21:06:10.487Z,100030.81
2022-11-13T21:09:01.335Z,99989.56
2022-11-13T21:11:49.026Z,100033.38
2022-11-13T21:14:37.161Z,100065.06
2022-11-13T21:17:25.398Z,100069.47
2022-11-13T21:20:24.728Z,100062.59
2022-11-13T21:23:12.240Z,100064.44
2022-11-13T21:26:06.846Z,100062.38
2022-11-13T21:28:57.596Z,100013.56
2022-11-13T21:31:45.247Z,100044.59
2022-11-13T21:34:32.983Z,100042.41
2022-11-13T21:37:21.305Z,100035.50
2022-11-13T21:40:11.788Z,100027.19
2022-11-13T21:43:11.847Z,100061.34
2022-11-13T21:46:05.764Z,100056.00
2022-11-13T21:48:58.069Z,100048.31
2022-11-13T21:51:46.214Z,100051.44
2022-11-13T21:54:25.201Z,100055.53
2022-11-13T21:57:24.569Z,100074.34
2022-11-13T22:00:16.171Z,100077.78
2022-11-13T22:03:03.929Z,100052.06
2022-11-13T22:05:51.819Z,100068.63
2022-11-13T22:08:39.537Z,100079.56
2022-11-13T22:11:34.198Z,100066.81
2022-11-13T22:14:22.323Z,100052.56
2022-11-13T22:17:22.935Z,100085.25
2022-11-13T22:20:11.780Z,100012.06
2022-11-13T22:23:07.420Z,100054.03
2022-11-13T22:26:02.528Z,100068.56
2022-11-13T22:28:58.654Z,100080.56
2022-11-13T22:31:47.715Z,100095.69
2022-11-13T22:34:37.656Z,100089.66
2022-11-13T22:37:25.394Z,100099.84
2022-11-13T22:40:15.140Z,100110.41
2022-11-13T22:43:03.360Z,100100.88
2022-11-13T22:45:51.383Z,100116.06
2022-11-13T22:48:40.695Z,100067.34
2022-11-13T22:51:37.810Z,100083.81
2022-11-13T22:54:26.293Z,100100.31
2022-11-13T22:57:14.195Z,100136.34
2022-11-13T23:00:08.779Z,100020.91
2022-11-13T23:03:01.530Z,100087.13
2022-11-13T23:05:49.617Z,100116.13
2022-11-13T23:08:40.916Z,100112.75
2022-11-13T23:11:31.039Z,100107.50
2022-11-13T23:14:07.958Z,100134.53
2022-11-13T23:16:55.654Z,100121.09
2022-11-13T23:19:43.763Z,100106.41
2022-11-13T23:22:34.302Z,100125.03
2022-11-13T23:25:24.122Z,100091.19
2022-11-13T23:28:12.533Z,100144.34
2022-11-13T23:31:01.018Z,100107.53
2022-11-13T23:33:48.728Z,100161.50
2022-11-13T23:36:36.649Z,100165.22
2022-11-13T23:39:24.680Z,100173.50
2022-11-13T23:42:16.135Z,100160.63
2022-11-13T23:45:12.300Z,100184.63
2022-11-13T23:47:59.968Z,100167.91
2022-11-13T23:50:47.998Z,100160.03
2022-11-13T23:53:35.855Z,100139.78
2022-11-13T23:56:23.788Z,100135.09
2022-11-13T23:59:13.578Z,100165.13
